Hilltop, Minnesota
Current Conditions -  °F | °C
As of 4:53 AM on Friday 24 Oct 2014 (Local Time) from KMIC Reporting Station
Clear Clear  
Wind Chill: 48°   Ceiling: Unl
Heat Index: 48°   Visibility: 8mi
Dew Point: 45°   Wind: 3mph
Humidity: 89%   Direction: 130°SE
Pressure: 29.91"   Gusts: NA
Location:  45.0516°N, 93.2549°W
Report Text: KMIC 240953Z AUTO 13003KT 8SM CLR 09/07 A2991 RMK AO2 SLP128 T00890072
Loading
Personal Weather Stations






























Interactive Weather Map New forecast layout! Learn more

10-Day Weather Forecast

Advertisements
Track Severe Weather on mobile